createdAt,value
2018-08-22T00:04:18.567Z,20.40
2018-08-22T00:09:23.494Z,20.30
2018-08-22T00:14:28.322Z,20.30
2018-08-22T00:19:33.902Z,20.20
2018-08-22T00:24:38.611Z,20.20
2018-08-22T00:29:43.975Z,20.20
2018-08-22T00:34:48.908Z,20.10
2018-08-22T00:39:53.635Z,20.10
2018-08-22T00:45:00.756Z,20.00
2018-08-22T00:50:05.570Z,20.00
2018-08-22T00:55:10.513Z,19.90
2018-08-22T01:00:15.968Z,19.90
2018-08-22T01:05:20.678Z,20.00
2018-08-22T01:10:25.442Z,19.90
2018-08-22T01:15:30.253Z,19.80
2018-08-22T01:20:35.523Z,19.80
2018-08-22T01:25:40.450Z,19.80
2018-08-22T01:30:45.086Z,19.90
2018-08-22T01:35:49.939Z,19.80
2018-08-22T01:40:54.655Z,19.80
2018-08-22T01:45:59.385Z,19.80
2018-08-22T01:51:04.356Z,19.70
2018-08-22T01:56:09.065Z,19.80
2018-08-22T02:01:13.712Z,19.70
2018-08-22T02:06:18.716Z,19.60
2018-08-22T02:11:24.018Z,19.60
2018-08-22T02:16:28.629Z,19.60
2018-08-22T02:21:33.788Z,19.60
2018-08-22T02:26:38.402Z,19.60
2018-08-22T02:31:43.158Z,19.50
2018-08-22T02:36:47.924Z,19.40
2018-08-22T02:41:52.740Z,19.40
2018-08-22T02:46:57.570Z,19.40
2018-08-22T02:52:02.803Z,19.30
2018-08-22T02:57:07.965Z,19.20
2018-08-22T03:02:12.626Z,19.20
2018-08-22T03:07:17.345Z,19.10
2018-08-22T03:12:22.077Z,19.10
2018-08-22T03:17:27.424Z,19.10
2018-08-22T03:22:32.148Z,19.10
2018-08-22T03:27:36.884Z,19.10
2018-08-22T03:32:41.736Z,19.00
2018-08-22T03:37:46.551Z,19.00
2018-08-22T03:42:51.390Z,18.80
2018-08-22T03:47:56.230Z,18.50
2018-08-22T03:53:01.705Z,18.30
2018-08-22T03:58:06.296Z,18.10
2018-08-22T04:03:11.061Z,18.10
2018-08-22T04:08:16.684Z,18.30
2018-08-22T04:13:21.537Z,18.30
2018-08-22T04:18:26.874Z,18.10
2018-08-22T04:23:31.543Z,18.00
2018-08-22T04:28:36.486Z,17.80
2018-08-22T04:33:41.323Z,17.70
2018-08-22T04:38:46.394Z,17.80
2018-08-22T04:43:51.315Z,17.90
2018-08-22T04:48:56.894Z,17.90
2018-08-22T04:54:01.820Z,17.90
2018-08-22T04:59:06.946Z,17.90
2018-08-22T05:04:11.848Z,17.90
2018-08-22T05:09:16.860Z,17.90
2018-08-22T05:14:22.716Z,18.00
2018-08-22T05:19:28.646Z,18.00
2018-08-22T05:24:33.516Z,18.00
2018-08-22T05:29:38.393Z,18.20
2018-08-22T05:34:43.495Z,18.40
2018-08-22T05:39:48.152Z,18.60
2018-08-22T05:44:52.983Z,18.80
2018-08-22T05:49:57.893Z,19.00
2018-08-22T05:55:03.037Z,19.20
2018-08-22T06:00:08.015Z,19.50
2018-08-22T06:05:13.872Z,19.60
2018-08-22T06:10:18.716Z,19.80
2018-08-22T06:15:23.513Z,20.00
2018-08-22T06:20:28.661Z,20.10
2018-08-22T06:25:33.651Z,20.40
2018-08-22T06:30:38.443Z,20.60
2018-08-22T06:35:43.254Z,20.70
2018-08-22T06:40:48.200Z,21.00
2018-08-22T06:45:53.703Z,21.10
2018-08-22T06:50:58.354Z,21.20
2018-08-22T06:56:03.385Z,21.40
2018-08-22T07:01:09.284Z,21.60
2018-08-22T07:06:14.047Z,21.70
2018-08-22T07:11:18.764Z,21.70
2018-08-22T07:16:23.426Z,21.90
2018-08-22T07:21:28.140Z,22.10
2018-08-22T07:26:33.169Z,22.00
2018-08-22T07:31:38.067Z,22.20
2018-08-22T07:36:42.762Z,22.40
2018-08-22T07:41:47.625Z,22.40
2018-08-22T07:46:54.074Z,22.70
2018-08-22T07:52:01.352Z,22.80
2018-08-22T07:57:08.747Z,23.00
2018-08-22T08:02:16.639Z,22.90
2018-08-22T08:07:22.541Z,22.90
2018-08-22T08:12:32.220Z,23.20
2018-08-22T08:17:38.025Z,23.40
2018-08-22T08:22:42.836Z,23.50
2018-08-22T08:27:48.069Z,23.70
2018-08-22T08:32:54.134Z,23.90
2018-08-22T08:37:59.700Z,24.10
2018-08-22T08:43:04.521Z,24.00
2018-08-22T08:48:09.248Z,24.00
2018-08-22T08:53:14.609Z,24.50
2018-08-22T08:58:19.435Z,24.40
2018-08-22T09:03:24.790Z,24.60
2018-08-22T09:08:30.170Z,25.00
2018-08-22T09:13:36.454Z,24.80
2018-08-22T09:18:41.283Z,24.90
2018-08-22T09:23:46.137Z,25.10
2018-08-22T09:28:52.330Z,25.50
2018-08-22T09:33:57.225Z,25.40
2018-08-22T09:39:01.934Z,25.30
2018-08-22T09:44:07.149Z,25.40
2018-08-22T09:49:11.767Z,25.60
2018-08-22T09:54:16.858Z,25.60
2018-08-22T09:59:21.584Z,26.00
2018-08-22T10:04:26.472Z,26.50
2018-08-22T10:09:31.268Z,26.90
2018-08-22T10:14:36.130Z,27.10
2018-08-22T10:19:42.175Z,27.00
2018-08-22T10:24:47.034Z,27.10
2018-08-22T10:29:51.953Z,27.10
2018-08-22T10:34:57.242Z,26.80
2018-08-22T10:40:02.180Z,27.10
2018-08-22T10:45:07.395Z,27.40
2018-08-22T10:50:12.131Z,27.80
2018-08-22T10:55:17.207Z,27.80
2018-08-22T11:00:22.839Z,28.00
2018-08-22T11:05:27.688Z,28.70
2018-08-22T11:10:32.649Z,28.70
2018-08-22T11:15:37.877Z,28.80
2018-08-22T11:20:59.310Z,29.10
2018-08-22T11:26:14.879Z,29.20
2018-08-22T11:31:30.691Z,30.00
2018-08-22T11:36:34.604Z,31.40
2018-08-22T11:41:39.443Z,33.10
2018-08-22T11:46:45.122Z,33.50
2018-08-22T11:51:49.928Z,34.20
2018-08-22T11:56:54.981Z,35.70
2018-08-22T12:02:00.453Z,36.40
2018-08-22T12:07:05.144Z,36.40
2018-08-22T12:12:09.919Z,37.00
2018-08-22T12:17:14.626Z,37.60
2018-08-22T12:22:19.402Z,38.00
2018-08-22T12:27:24.200Z,38.00
2018-08-22T12:32:29.147Z,37.90
2018-08-22T12:37:34.004Z,38.30
2018-08-22T12:42:39.166Z,38.00
2018-08-22T12:47:44.085Z,39.40
2018-08-22T12:52:49.697Z,38.40
2018-08-22T12:57:54.700Z,37.60
2018-08-22T13:02:59.849Z,38.10
2018-08-22T13:08:04.294Z,39.00
2018-08-22T13:13:09.368Z,39.10
2018-08-22T13:18:14.065Z,37.90
2018-08-22T13:23:18.654Z,36.20
2018-08-22T13:28:23.416Z,34.40
2018-08-22T13:33:28.448Z,33.00
2018-08-22T13:38:33.677Z,33.50
2018-08-22T13:43:38.548Z,34.20
2018-08-22T13:48:43.396Z,35.80
2018-08-22T13:53:48.282Z,35.90
2018-08-22T13:58:53.493Z,37.10
2018-08-22T14:03:58.803Z,37.50
2018-08-22T14:09:05.686Z,37.40
2018-08-22T14:14:10.657Z,37.90
2018-08-22T14:19:15.556Z,38.40
2018-08-22T14:24:20.452Z,37.40
2018-08-22T14:29:25.298Z,37.20
2018-08-22T14:34:30.096Z,37.40
2018-08-22T14:39:35.039Z,36.70
2018-08-22T14:44:39.879Z,37.20
2018-08-22T14:49:44.836Z,37.80
2018-08-22T14:54:49.959Z,37.70
2018-08-22T14:59:54.785Z,37.30
2018-08-22T15:04:59.812Z,37.30
2018-08-22T15:10:04.682Z,37.30
2018-08-22T15:15:09.953Z,37.00
2018-08-22T15:20:15.314Z,36.90
2018-08-22T15:25:21.159Z,36.80
2018-08-22T15:30:28.003Z,36.90
2018-08-22T15:35:33.111Z,36.00
2018-08-22T15:40:38.164Z,37.50
2018-08-22T15:45:43.078Z,38.40
2018-08-22T15:50:48.076Z,38.40
2018-08-22T15:55:52.910Z,38.20
2018-08-22T16:00:57.875Z,37.90
2018-08-22T16:06:02.815Z,37.10
2018-08-22T16:11:08.061Z,37.20
2018-08-22T16:16:13.032Z,37.40
2018-08-22T16:21:19.213Z,37.40
2018-08-22T16:26:24.071Z,36.60
2018-08-22T16:31:34.032Z,36.90
2018-08-22T16:36:41.950Z,36.80
2018-08-22T16:41:46.869Z,34.60
2018-08-22T16:46:52.153Z,32.80
2018-08-22T16:51:56.913Z,32.80
2018-08-22T16:57:01.866Z,34.70
2018-08-22T17:02:07.906Z,35.70
2018-08-22T17:07:17.342Z,36.30
2018-08-22T17:12:22.118Z,37.70
2018-08-22T17:17:26.744Z,36.50
2018-08-22T17:22:31.926Z,33.50
2018-08-22T17:27:36.709Z,32.10
2018-08-22T17:32:41.549Z,31.60
2018-08-22T17:37:57.385Z,30.80
2018-08-22T17:43:02.406Z,30.40
2018-08-22T17:48:07.500Z,30.10
2018-08-22T17:53:12.293Z,29.40
2018-08-22T17:58:17.128Z,29.10
2018-08-22T18:03:22.506Z,28.90
2018-08-22T18:08:27.211Z,28.60
2018-08-22T18:13:31.953Z,28.20
2018-08-22T18:18:36.785Z,27.70
2018-08-22T18:23:50.785Z,27.30
2018-08-22T18:28:55.669Z,27.00
2018-08-22T18:34:02.667Z,26.70
2018-08-22T18:39:13.857Z,26.50
2018-08-22T18:44:18.597Z,26.20
2018-08-22T18:49:23.955Z,26.10
2018-08-22T18:54:28.744Z,26.00
2018-08-22T18:59:33.469Z,25.80
2018-08-22T19:04:38.874Z,25.70
2018-08-22T19:09:44.477Z,25.60
2018-08-22T19:14:49.298Z,25.50
2018-08-22T19:19:54.440Z,25.30
2018-08-22T19:25:05.751Z,25.20
2018-08-22T19:30:11.391Z,25.00
2018-08-22T19:35:17.037Z,24.90
2018-08-22T19:40:21.922Z,24.70
2018-08-22T19:45:26.594Z,24.70
2018-08-22T19:50:31.664Z,24.90
2018-08-22T19:55:37.257Z,24.80
2018-08-22T20:00:42.271Z,24.70
2018-08-22T20:05:51.970Z,24.70
2018-08-22T20:10:57.121Z,24.60
2018-08-22T20:16:03.067Z,24.30
2018-08-22T20:21:08.958Z,24.10
2018-08-22T20:26:14.108Z,24.00
2018-08-22T20:31:19.141Z,24.00
2018-08-22T20:36:23.997Z,23.90
2018-08-22T20:41:28.700Z,23.80
2018-08-22T20:46:34.170Z,23.50
2018-08-22T20:51:38.918Z,23.30
2018-08-22T20:56:49.009Z,23.20
2018-08-22T21:01:59.123Z,23.20
2018-08-22T21:07:04.374Z,23.10
2018-08-22T21:12:09.280Z,22.90
2018-08-22T21:17:14.349Z,23.00
2018-08-22T21:22:26.407Z,23.00
2018-08-22T21:27:31.230Z,22.90
2018-08-22T21:32:36.870Z,23.00
2018-08-22T21:37:41.561Z,23.10
2018-08-22T21:42:46.253Z,22.80
2018-08-22T21:47:57.124Z,22.50
2018-08-22T21:53:03.166Z,22.30
2018-08-22T21:58:08.799Z,22.30
2018-08-22T22:03:14.146Z,22.30
2018-08-22T22:08:19.928Z,22.40
2018-08-22T22:13:25.130Z,22.40
2018-08-22T22:18:31.437Z,22.40
2018-08-22T22:23:47.235Z,22.10
2018-08-22T22:28:53.406Z,21.70
2018-08-22T22:34:03.113Z,21.60
2018-08-22T22:39:45.754Z,21.70
2018-08-22T22:44:51.802Z,21.60
2018-08-22T22:49:58.276Z,21.70
2018-08-22T22:55:05.015Z,21.60
2018-08-22T23:00:12.424Z,21.50
2018-08-22T23:05:17.929Z,21.50
2018-08-22T23:10:22.944Z,21.40
2018-08-22T23:15:29.269Z,21.40
2018-08-22T23:20:48.097Z,21.40
2018-08-22T23:25:52.815Z,21.40
2018-08-22T23:30:57.542Z,21.60
2018-08-22T23:36:02.507Z,21.60
2018-08-22T23:41:08.241Z,21.50
2018-08-22T23:47:42.101Z,21.40
2018-08-22T23:52:48.556Z,21.40
2018-08-22T23:57:55.592Z,21.30
